Mobile, AL

2:18 PM CST on December 08, 2016 (GMT -0600)
Downtown Waterfront | | Change Station

Elev 13 ft 30.69 °N, 88.04 °W | Updated 39 seconds ago

Overcast
Overcast
51.5 °F
Feels Like 51.5 °F
N
17.0
Wind Variable Wind from North
Gusts 23.0 mph

Today
High -- | Low -- °F
--% Chance of Precip.
Yesterday
High -- | Low -- °F
Precip. -- in
Pressure 30.29 in
Visibility 10.0 miles
Clouds Overcast 8000 ft
Dew Point 38 °F
Humidity 61%
Rainfall 0.00 in
Snow Depth Not available.
6:37 AM 4:50 PM
Waxing Gibbous, 66% visible
METAR KBFM 081953Z 35012KT 10SM OVC080 12/02 A3029 RMK AO2 SLP257 T01220022
Pressure 30.29 in
Visibility 10.0 miles
Clouds Overcast 8000 ft
Dew Point 38 °F
Humidity 61%
Rainfall 0.00 in
Snow Depth Not available.
6:37 AM 4:50 PM
Waxing Gibbous, 66% visible
METAR KBFM 081953Z 35012KT 10SM OVC080 12/02 A3029 RMK AO2 SLP257 T01220022

10-Day Weather Forecast

Almanac

Astronomy

Dec. 08, 2016 Rise Set
Actual Time
Civil Twilight
Nautical Twilight
Astronomical Twilight
Moon
Length of Visible Light
Length of Day
Tomorrow will be .
, % of the Moon is Illuminated

Today's Extremes

State Highs State Lows

Community

WunderPhotos

Upload Photos

1,956,277 photos uploaded!

WunderBlog® & News

Nearby

Air Quality

  Air Quality AQ Index Pollutant
Not available.

Snow Depth

Station Depth Elevation

Earthquake Activity

City Distance Mag. Time & Date
Minimum magnitude displayed is 2.5.

Coastal Water Temperatures

Place Temperature

Stations

Nearby Weather Stations

Station Location Temp. Windchill Dew Point Humidity Wind Precip. Elev Updated Type
                   

Watches & Warnings

There are currently no watches in effect.